createdAt,value
2022-08-02T00:00:12.083Z,1.67
2022-08-02T00:02:38.833Z,1.73
2022-08-02T00:05:06.668Z,1.45
2022-08-02T00:07:39.014Z,1.52
2022-08-02T00:10:10.075Z,1.58
2022-08-02T00:12:37.071Z,1.58
2022-08-02T00:15:04.994Z,1.55
2022-08-02T00:17:32.101Z,1.55
2022-08-02T00:19:58.759Z,1.60
2022-08-02T00:22:25.401Z,1.80
2022-08-02T00:24:52.195Z,1.70
2022-08-02T00:27:18.961Z,1.70
2022-08-02T00:29:53.006Z,1.75
2022-08-02T00:32:20.958Z,1.73
2022-08-02T00:34:48.268Z,1.97
2022-08-02T00:37:14.944Z,1.50
2022-08-02T00:39:45.218Z,1.50
2022-08-02T00:42:15.299Z,1.55
2022-08-02T00:44:42.928Z,1.63
2022-08-02T00:47:10.008Z,1.40
2022-08-02T00:49:37.472Z,1.52
2022-08-02T00:52:05.101Z,1.42
2022-08-02T00:54:31.912Z,1.52
2022-08-02T00:56:58.650Z,1.20
2022-08-02T00:59:25.365Z,1.60
2022-08-02T01:01:55.984Z,1.80
2022-08-02T01:04:29.837Z,1.33
2022-08-02T01:07:00.193Z,2.20
2022-08-02T01:09:27.329Z,1.92
2022-08-02T01:11:54.048Z,1.77
2022-08-02T01:14:23.125Z,1.77
2022-08-02T01:17:02.281Z,1.30
2022-08-02T01:19:48.597Z,1.70
2022-08-02T01:22:59.611Z,1.75
2022-08-02T01:25:45.078Z,1.80
2022-08-02T01:28:26.965Z,1.70
2022-08-02T01:31:16.767Z,1.50
2022-08-02T01:33:49.173Z,1.63
2022-08-02T01:36:18.953Z,1.80
2022-08-02T01:38:48.939Z,2.38
2022-08-02T01:41:19.989Z,1.65
2022-08-02T01:43:49.672Z,1.27
2022-08-02T01:46:19.070Z,2.00
2022-08-02T01:48:47.773Z,1.70
2022-08-02T01:51:17.714Z,1.55
2022-08-02T01:53:47.559Z,1.80
2022-08-02T01:56:16.457Z,1.50
2022-08-02T01:58:45.445Z,1.60
2022-08-02T02:01:16.012Z,1.80
2022-08-02T02:03:47.635Z,1.75
2022-08-02T02:06:16.383Z,2.10
2022-08-02T02:08:44.363Z,1.50
2022-08-02T02:12:06.059Z,1.80
2022-08-02T02:14:00.846Z,1.80
2022-08-02T02:16:29.198Z,1.88
2022-08-02T02:18:56.222Z,1.60
2022-08-02T02:21:23.262Z,1.50
2022-08-02T02:23:50.712Z,1.75
2022-08-02T02:26:29.617Z,1.42
2022-08-02T02:29:02.105Z,1.40
2022-08-02T02:31:32.805Z,1.70
2022-08-02T02:34:03.315Z,1.58
2022-08-02T02:36:33.437Z,1.67
2022-08-02T02:39:03.499Z,1.67
2022-08-02T02:41:30.464Z,1.63
2022-08-02T02:44:02.378Z,1.55
2022-08-02T02:46:34.161Z,1.65
2022-08-02T02:49:01.290Z,1.85
2022-08-02T02:51:29.550Z,1.60
2022-08-02T02:56:44.580Z,1.75
2022-08-02T02:59:13.849Z,1.52
2022-08-02T03:01:57.335Z,1.80
2022-08-02T03:04:27.067Z,1.70
2022-08-02T03:06:54.051Z,1.63
2022-08-02T03:09:20.918Z,1.50
2022-08-02T03:11:48.640Z,1.98
2022-08-02T03:14:16.028Z,1.45
2022-08-02T03:16:45.255Z,1.47
2022-08-02T03:19:12.372Z,1.45
2022-08-02T03:21:39.074Z,1.63
2022-08-02T03:24:07.323Z,1.60
2022-08-02T03:26:34.825Z,1.92
2022-08-02T03:29:10.059Z,1.77
2022-08-02T03:31:41.914Z,1.80
2022-08-02T03:34:08.789Z,1.70
2022-08-02T03:36:36.483Z,1.70
2022-08-02T03:39:05.455Z,1.60
2022-08-02T03:41:33.276Z,1.80
2022-08-02T03:44:01.725Z,1.38
2022-08-02T03:46:29.277Z,1.58
2022-08-02T03:48:56.981Z,1.75
2022-08-02T03:51:24.170Z,1.30
2022-08-02T03:53:51.107Z,1.52
2022-08-02T03:56:18.712Z,1.55
2022-08-02T03:58:49.274Z,1.50
2022-08-02T04:01:17.028Z,1.52
2022-08-02T04:03:44.202Z,1.65
2022-08-02T04:06:11.224Z,1.65
2022-08-02T04:08:38.988Z,1.48
2022-08-02T04:11:25.259Z,1.42
2022-08-02T04:13:56.488Z,1.55
2022-08-02T04:16:31.599Z,1.50
2022-08-02T04:19:02.400Z,1.48
2022-08-02T04:21:48.406Z,1.52
2022-08-02T04:24:24.493Z,1.35
2022-08-02T04:27:19.459Z,1.40
2022-08-02T04:29:50.023Z,1.30
2022-08-02T04:32:18.292Z,1.67
2022-08-02T04:37:33.772Z,1.65
2022-08-02T04:40:00.869Z,1.40
2022-08-02T04:42:27.481Z,1.70
2022-08-02T04:44:54.446Z,1.60
2022-08-02T04:47:40.007Z,1.70
2022-08-02T04:50:09.364Z,1.85
2022-08-02T04:52:36.091Z,1.27
2022-08-02T04:55:02.807Z,1.73
2022-08-02T04:57:52.567Z,1.75
2022-08-02T05:00:20.416Z,1.60
2022-08-02T05:02:47.492Z,1.88
2022-08-02T05:05:14.878Z,1.30
2022-08-02T05:07:41.695Z,2.00
2022-08-02T05:10:08.677Z,1.90
2022-08-02T05:12:35.343Z,1.92
2022-08-02T05:15:02.074Z,1.70
2022-08-02T05:17:28.765Z,1.67
2022-08-02T05:19:55.505Z,1.73
2022-08-02T05:22:22.243Z,1.55
2022-08-02T05:24:48.977Z,1.77
2022-08-02T05:27:16.520Z,1.80
2022-08-02T05:29:51.230Z,1.65
2022-08-02T05:32:20.603Z,1.73
2022-08-02T05:34:50.506Z,2.10
2022-08-02T05:37:17.602Z,2.13
2022-08-02T05:39:55.760Z,2.07
2022-08-02T05:42:23.721Z,1.40
2022-08-02T05:44:50.814Z,1.87
2022-08-02T05:47:17.714Z,1.70
2022-08-02T05:49:44.476Z,1.58
2022-08-02T05:52:17.245Z,1.67
2022-08-02T05:54:46.597Z,2.30
2022-08-02T05:57:43.398Z,1.75
2022-08-02T06:00:13.869Z,1.75
2022-08-02T06:02:43.647Z,1.75
2022-08-02T06:05:12.867Z,1.67
2022-08-02T06:07:44.784Z,2.10
2022-08-02T06:10:13.750Z,1.85
2022-08-02T06:12:51.953Z,1.63
2022-08-02T06:17:47.976Z,1.70
2022-08-02T06:20:16.296Z,2.30
2022-08-02T06:25:51.028Z,1.63
2022-08-02T06:28:02.463Z,1.83
2022-08-02T06:30:31.729Z,2.40
2022-08-02T06:33:00.301Z,2.00
2022-08-02T06:35:40.363Z,2.00
2022-08-02T06:38:10.031Z,1.90
2022-08-02T06:41:16.945Z,1.58
2022-08-02T06:44:13.757Z,1.73
2022-08-02T06:47:11.701Z,1.65
2022-08-02T06:49:52.486Z,2.00
2022-08-02T06:52:22.290Z,1.73
2022-08-02T06:54:52.327Z,2.00
2022-08-02T06:57:18.991Z,1.77
2022-08-02T06:59:45.778Z,2.25
2022-08-02T07:02:12.890Z,1.95
2022-08-02T07:04:39.795Z,1.80
2022-08-02T07:07:06.537Z,2.28
2022-08-02T07:09:33.246Z,2.10
2022-08-02T07:12:00.025Z,1.80
2022-08-02T07:14:26.903Z,1.90
2022-08-02T07:16:53.680Z,2.17
2022-08-02T07:19:20.313Z,1.90
2022-08-02T07:21:57.744Z,1.70
2022-08-02T07:24:27.685Z,1.90
2022-08-02T07:27:10.478Z,1.80
2022-08-02T07:29:46.661Z,1.75
2022-08-02T07:32:21.389Z,1.77
2022-08-02T07:34:51.159Z,1.70
2022-08-02T07:37:35.942Z,2.03
2022-08-02T07:40:15.356Z,2.05
2022-08-02T07:42:48.661Z,2.00
2022-08-02T07:47:44.028Z,2.05
2022-08-02T07:50:12.970Z,2.00
2022-08-02T07:52:40.757Z,1.90
2022-08-02T07:55:09.515Z,1.90
2022-08-02T07:57:37.003Z,1.80
2022-08-02T08:00:06.403Z,1.85
2022-08-02T08:02:33.055Z,2.10
2022-08-02T08:04:59.797Z,1.65
2022-08-02T08:07:26.541Z,1.80
2022-08-02T08:09:56.434Z,1.65
2022-08-02T08:12:23.534Z,2.00
2022-08-02T08:14:50.177Z,1.92
2022-08-02T08:17:17.360Z,1.85
2022-08-02T08:19:52.089Z,1.90
2022-08-02T08:22:22.972Z,1.98
2022-08-02T08:24:50.320Z,2.75
2022-08-02T08:27:18.519Z,2.27
2022-08-02T08:32:17.617Z,1.85
2022-08-02T08:34:48.685Z,1.50
2022-08-02T08:37:18.288Z,1.55
2022-08-02T08:39:56.900Z,1.83
2022-08-02T08:42:31.039Z,1.35
2022-08-02T08:44:59.273Z,2.03
2022-08-02T08:50:22.864Z,1.13
2022-08-02T08:53:01.228Z,1.60
2022-08-02T08:55:30.537Z,1.38
2022-08-02T08:57:59.244Z,1.70
2022-08-02T09:00:27.457Z,1.40
2022-08-02T09:05:20.740Z,1.13
2022-08-02T09:07:49.276Z,1.50
2022-08-02T09:10:45.784Z,1.83
2022-08-02T09:13:37.651Z,1.70
2022-08-02T09:16:13.052Z,1.73
2022-08-02T09:18:46.152Z,1.90
2022-08-02T09:21:15.748Z,1.20
2022-08-02T09:23:48.198Z,1.50
2022-08-02T09:26:17.402Z,1.80
2022-08-02T09:28:46.903Z,1.38
2022-08-02T09:31:16.002Z,1.25
2022-08-02T09:33:44.554Z,0.98
2022-08-02T09:36:16.292Z,1.40
2022-08-02T09:38:57.921Z,1.20
2022-08-02T09:41:45.650Z,1.30
2022-08-02T09:44:16.139Z,1.17
2022-08-02T09:46:46.972Z,1.30
2022-08-02T09:49:16.735Z,1.08
2022-08-02T09:51:47.166Z,1.58
2022-08-02T09:54:23.328Z,1.13
2022-08-02T09:56:52.886Z,1.33
2022-08-02T09:59:21.701Z,1.40
2022-08-02T10:01:51.034Z,1.40
2022-08-02T10:04:34.315Z,1.17
2022-08-02T10:07:04.683Z,1.80
2022-08-02T10:09:32.504Z,1.20
2022-08-02T10:11:59.987Z,1.33
2022-08-02T10:14:28.095Z,0.95
2022-08-02T10:16:58.130Z,1.20
2022-08-02T10:20:00.192Z,1.10
2022-08-02T10:22:14.871Z,1.30
2022-08-02T10:24:47.633Z,0.93
2022-08-02T10:27:20.775Z,1.27
2022-08-02T10:29:54.956Z,1.50
2022-08-02T10:32:39.925Z,1.15
2022-08-02T10:35:19.969Z,1.48
2022-08-02T10:38:04.259Z,1.40
2022-08-02T10:40:47.259Z,1.27
2022-08-02T10:43:36.477Z,1.27
2022-08-02T10:46:21.640Z,1.20
2022-08-02T10:49:38.675Z,1.27
2022-08-02T10:52:02.782Z,1.65
2022-08-02T10:54:33.302Z,1.23
2022-08-02T10:57:01.320Z,1.25
2022-08-02T10:59:37.126Z,0.98
2022-08-02T11:02:06.190Z,1.83
2022-08-02T11:04:42.258Z,1.02
2022-08-02T11:07:17.374Z,1.80
2022-08-02T11:09:51.277Z,1.15
2022-08-02T11:12:20.096Z,1.52
2022-08-02T11:15:04.003Z,0.82
2022-08-02T11:17:54.432Z,1.42
2022-08-02T11:20:23.178Z,1.58
2022-08-02T11:22:52.771Z,1.23
2022-08-02T11:25:22.389Z,1.42
2022-08-02T11:27:52.360Z,1.23
2022-08-02T11:30:20.350Z,1.60
2022-08-02T11:32:58.677Z,1.60
2022-08-02T11:35:36.441Z,1.42
2022-08-02T11:38:20.704Z,1.10
2022-08-02T11:40:49.136Z,1.05
2022-08-02T11:43:17.887Z,1.17
2022-08-02T11:45:44.825Z,1.58
2022-08-02T11:48:11.520Z,1.60
2022-08-02T11:50:38.386Z,1.50
2022-08-02T11:53:17.752Z,1.50
2022-08-02T11:55:44.502Z,1.10
2022-08-02T11:58:11.802Z,1.35
2022-08-02T12:00:38.899Z,1.80
2022-08-02T12:03:06.693Z,1.42
2022-08-02T12:06:02.953Z,1.42
2022-08-02T12:08:25.402Z,1.30
2022-08-02T12:10:53.148Z,1.05
2022-08-02T12:13:20.118Z,0.95
2022-08-02T12:15:47.497Z,1.23
2022-08-02T12:18:35.059Z,0.97
2022-08-02T12:21:02.516Z,1.15
2022-08-02T12:23:30.189Z,1.50
2022-08-02T12:26:03.847Z,1.20
2022-08-02T12:28:34.847Z,1.95
2022-08-02T12:31:02.361Z,2.22
2022-08-02T12:33:45.792Z,1.13
2022-08-02T12:36:39.960Z,1.20
2022-08-02T12:39:12.387Z,1.30
2022-08-02T12:41:39.177Z,1.20
2022-08-02T12:44:21.579Z,1.08
2022-08-02T12:46:59.528Z,0.98
2022-08-02T12:49:27.328Z,1.00
2022-08-02T12:51:57.729Z,0.93
2022-08-02T12:54:40.251Z,1.30
2022-08-02T12:57:14.645Z,1.35
2022-08-02T12:59:45.216Z,0.90
2022-08-02T13:02:14.637Z,1.17
2022-08-02T13:04:41.814Z,0.80
2022-08-02T13:07:17.354Z,1.20
2022-08-02T13:09:48.307Z,1.20
2022-08-02T13:12:15.676Z,1.33
2022-08-02T13:14:43.242Z,1.02
2022-08-02T13:17:10.484Z,0.88
2022-08-02T13:19:38.565Z,1.10
2022-08-02T13:22:05.892Z,1.40
2022-08-02T13:24:39.621Z,1.23
2022-08-02T13:27:09.347Z,1.05
2022-08-02T13:32:04.175Z,0.93
2022-08-02T13:34:30.948Z,1.30
2022-08-02T13:36:57.696Z,1.38
2022-08-02T13:39:24.546Z,1.25
2022-08-02T13:41:51.707Z,1.35
2022-08-02T13:44:18.373Z,1.02
2022-08-02T13:46:46.172Z,2.20
2022-08-02T13:49:18.495Z,1.30
2022-08-02T13:51:49.222Z,1.15
2022-08-02T13:54:16.501Z,0.80
2022-08-02T13:56:43.612Z,1.00
2022-08-02T13:59:23.643Z,1.02
2022-08-02T14:02:09.478Z,1.17
2022-08-02T14:04:38.843Z,0.88
2022-08-02T14:07:05.825Z,1.05
2022-08-02T14:09:32.661Z,1.17
2022-08-02T14:12:00.490Z,0.90
2022-08-02T14:14:27.284Z,1.10
2022-08-02T14:16:54.074Z,1.10
2022-08-02T14:19:21.975Z,1.05
2022-08-02T14:21:49.547Z,0.98
2022-08-02T14:24:17.430Z,1.38
2022-08-02T14:26:45.780Z,0.82
2022-08-02T14:29:13.079Z,1.08
2022-08-02T14:31:43.957Z,1.13
2022-08-02T14:34:11.418Z,1.30
2022-08-02T14:36:39.225Z,1.02
2022-08-02T14:39:06.150Z,0.85
2022-08-02T14:41:54.742Z,1.00
2022-08-02T14:44:20.896Z,1.35
2022-08-02T14:46:47.663Z,1.10
2022-08-02T14:49:25.121Z,1.10
2022-08-02T14:51:53.888Z,1.00
2022-08-02T14:54:20.857Z,0.60
2022-08-02T14:56:56.098Z,0.98
2022-08-02T14:59:22.931Z,1.10
2022-08-02T15:01:49.797Z,1.23
2022-08-02T15:04:16.770Z,1.10
2022-08-02T15:06:43.483Z,1.05
2022-08-02T15:09:10.129Z,0.88
2022-08-02T15:11:47.671Z,1.30
2022-08-02T15:14:21.895Z,1.00
2022-08-02T15:16:58.604Z,1.10
2022-08-02T15:19:41.589Z,1.10
2022-08-02T15:22:16.828Z,0.90
2022-08-02T15:24:46.431Z,0.93
2022-08-02T15:27:14.546Z,1.02
2022-08-02T15:29:42.957Z,1.30
2022-08-02T15:32:10.193Z,1.27
2022-08-02T15:34:37.218Z,1.35
2022-08-02T15:37:04.292Z,1.10
2022-08-02T15:39:31.329Z,1.50
2022-08-02T15:41:58.191Z,1.08
2022-08-02T15:44:25.306Z,1.30
2022-08-02T15:46:53.446Z,1.73
2022-08-02T15:51:47.936Z,1.50
2022-08-02T15:54:14.595Z,1.25
2022-08-02T15:56:41.248Z,1.40
2022-08-02T15:59:08.269Z,1.27
2022-08-02T16:01:37.660Z,1.38
2022-08-02T16:04:07.218Z,1.60
2022-08-02T16:06:34.930Z,1.70
2022-08-02T16:09:01.841Z,1.98
2022-08-02T16:11:28.867Z,1.60
2022-08-02T16:13:55.800Z,1.60
2022-08-02T16:16:24.302Z,1.80
2022-08-02T16:18:51.413Z,1.50
2022-08-02T16:21:19.471Z,1.88
2022-08-02T16:26:34.372Z,1.50
2022-08-02T16:29:02.295Z,1.65
2022-08-02T16:31:29.136Z,1.52
2022-08-02T16:33:57.074Z,1.92
2022-08-02T16:36:25.816Z,2.00
2022-08-02T16:38:53.981Z,1.90
2022-08-02T16:41:21.179Z,1.75
2022-08-02T16:43:48.136Z,1.40
2022-08-02T16:46:15.274Z,2.28
2022-08-02T16:48:51.096Z,1.52
2022-08-02T16:51:19.593Z,1.98
2022-08-02T16:56:30.469Z,1.90
2022-08-02T16:58:59.607Z,1.85
2022-08-02T17:01:27.414Z,2.15
2022-08-02T17:03:56.925Z,2.00
2022-08-02T17:06:26.376Z,2.05
2022-08-02T17:08:56.384Z,2.22
2022-08-02T17:11:23.843Z,2.22
2022-08-02T17:13:51.929Z,2.00
2022-08-02T17:16:20.332Z,1.83
2022-08-02T17:18:54.206Z,2.03
2022-08-02T17:24:08.414Z,1.98
2022-08-02T17:26:36.103Z,2.10
2022-08-02T17:29:15.888Z,1.75
2022-08-02T17:32:05.689Z,2.20
2022-08-02T17:34:32.267Z,2.42
2022-08-02T17:37:00.410Z,2.28
2022-08-02T17:39:33.817Z,2.47
2022-08-02T17:42:02.874Z,2.38
2022-08-02T17:44:37.100Z,2.63
2022-08-02T17:47:11.865Z,2.60
2022-08-02T17:52:51.673Z,2.40
2022-08-02T17:55:14.658Z,2.67
2022-08-02T17:57:57.740Z,2.55
2022-08-02T18:00:32.076Z,2.47
2022-08-02T18:03:05.711Z,2.78
2022-08-02T18:05:55.234Z,2.90
2022-08-02T18:08:24.110Z,2.60
2022-08-02T18:10:52.776Z,2.70
2022-08-02T18:13:19.792Z,2.65
2022-08-02T18:15:46.845Z,2.78
2022-08-02T18:18:16.885Z,2.90
2022-08-02T18:20:46.009Z,3.10
2022-08-02T18:23:13.419Z,2.75
2022-08-02T18:25:46.753Z,3.47
2022-08-02T18:28:15.757Z,2.42
2022-08-02T18:30:43.344Z,2.80
2022-08-02T18:33:57.395Z,3.60
2022-08-02T18:35:57.257Z,3.08
2022-08-02T18:38:25.049Z,2.50
2022-08-02T18:40:53.791Z,3.00
2022-08-02T18:43:25.624Z,2.95
2022-08-02T18:46:05.884Z,2.83
2022-08-02T18:48:46.172Z,2.72
2022-08-02T18:51:14.660Z,3.20
2022-08-02T18:53:42.916Z,2.95
2022-08-02T18:56:19.760Z,2.90
2022-08-02T18:58:50.915Z,2.83
2022-08-02T19:01:32.432Z,3.10
2022-08-02T19:04:03.077Z,3.30
2022-08-02T19:06:30.435Z,3.20
2022-08-02T19:09:05.760Z,3.83
2022-08-02T19:11:41.438Z,2.80
2022-08-02T19:14:24.106Z,3.42
2022-08-02T19:16:59.622Z,3.55
2022-08-02T19:19:28.983Z,3.38
2022-08-02T19:22:26.522Z,3.70
2022-08-02T19:24:44.493Z,3.35
2022-08-02T19:27:14.837Z,3.35
2022-08-02T19:29:50.881Z,3.30
2022-08-02T19:32:41.213Z,3.38
2022-08-02T19:37:55.909Z,3.40
2022-08-02T19:40:29.050Z,3.10
2022-08-02T19:45:51.155Z,3.28
2022-08-02T19:48:23.519Z,3.60
2022-08-02T19:50:55.856Z,3.05
2022-08-02T19:53:29.174Z,3.80
2022-08-02T19:56:11.597Z,3.45
2022-08-02T19:58:39.805Z,3.70
2022-08-02T20:01:14.130Z,4.07
2022-08-02T20:03:52.193Z,3.88
2022-08-02T20:06:28.514Z,3.55
2022-08-02T20:08:59.212Z,4.10
2022-08-02T20:11:28.046Z,4.18
2022-08-02T20:13:54.870Z,3.97
2022-08-02T20:16:28.379Z,4.05
2022-08-02T20:19:00.408Z,4.25
2022-08-02T20:21:36.244Z,4.00
2022-08-02T20:24:06.049Z,3.95
2022-08-02T20:26:32.906Z,4.00
2022-08-02T20:29:03.062Z,3.63
2022-08-02T20:31:30.541Z,3.08
2022-08-02T20:33:57.363Z,4.67
2022-08-02T20:36:25.445Z,3.50
2022-08-02T20:41:37.299Z,3.80
2022-08-02T20:44:30.130Z,3.97
2022-08-02T20:46:59.274Z,4.10
2022-08-02T20:49:41.262Z,3.65
2022-08-02T20:52:23.215Z,3.85
2022-08-02T20:54:57.358Z,4.45
2022-08-02T20:57:36.119Z,3.67
2022-08-02T21:00:18.536Z,4.97
2022-08-02T21:03:07.450Z,4.90
2022-08-02T21:05:54.639Z,3.63
2022-08-02T21:08:24.107Z,5.10
2022-08-02T21:13:26.005Z,4.50
2022-08-02T21:15:55.204Z,4.45
2022-08-02T21:18:40.194Z,4.43
2022-08-02T21:21:08.780Z,3.60
2022-08-02T21:23:48.677Z,4.63
2022-08-02T21:26:19.694Z,4.38
2022-08-02T21:29:00.975Z,3.97
2022-08-02T21:31:33.338Z,3.60
2022-08-02T21:34:22.499Z,4.28
2022-08-02T21:36:54.942Z,3.60
2022-08-02T21:39:28.554Z,3.87
2022-08-02T21:41:55.308Z,3.10
2022-08-02T21:44:22.887Z,3.97
2022-08-02T21:46:59.834Z,5.05
2022-08-02T21:50:09.491Z,3.60
2022-08-02T21:52:20.657Z,3.80
2022-08-02T21:54:55.703Z,4.03
2022-08-02T21:57:34.850Z,3.40
2022-08-02T22:00:02.189Z,4.53
2022-08-02T22:02:48.643Z,3.97
2022-08-02T22:05:18.605Z,3.80
2022-08-02T22:07:45.583Z,3.47
2022-08-02T22:10:19.956Z,3.77
2022-08-02T22:12:46.839Z,3.17
2022-08-02T22:15:14.415Z,3.72
2022-08-02T22:17:52.954Z,3.80
2022-08-02T22:20:26.539Z,4.47
2022-08-02T22:23:02.772Z,3.47
2022-08-02T22:25:36.478Z,4.15
2022-08-02T22:28:38.461Z,3.95
2022-08-02T22:31:00.173Z,3.67
2022-08-02T22:34:00.085Z,4.78
2022-08-02T22:36:32.129Z,3.88
2022-08-02T22:39:19.035Z,3.92
2022-08-02T22:42:05.638Z,3.40
2022-08-02T22:44:39.738Z,3.72
2022-08-02T22:47:14.515Z,4.03
2022-08-02T22:49:54.292Z,3.65
2022-08-02T22:52:23.111Z,4.47
2022-08-02T22:54:56.774Z,3.53
2022-08-02T22:57:30.160Z,3.42
2022-08-02T22:58:50.850Z,2.78
2022-08-02T22:58:52.376Z,3.10
2022-08-02T22:59:05.857Z,3.60
2022-08-02T23:00:08.095Z,3.85
2022-08-02T23:02:54.781Z,3.47
2022-08-02T23:05:28.898Z,3.38
2022-08-02T23:07:56.119Z,3.28
2022-08-02T23:10:29.880Z,3.53
2022-08-02T23:12:59.203Z,3.97
2022-08-02T23:15:26.422Z,3.47
2022-08-02T23:18:18.888Z,3.45
2022-08-02T23:20:45.537Z,3.92
2022-08-02T23:23:12.111Z,4.03
2022-08-02T23:25:45.958Z,3.50
2022-08-02T23:28:12.651Z,3.90
2022-08-02T23:30:39.250Z,3.80
2022-08-02T23:33:13.005Z,3.22
2022-08-02T23:35:39.674Z,2.72
2022-08-02T23:38:06.348Z,3.33
2022-08-02T23:40:41.231Z,4.40
2022-08-02T23:43:14.095Z,3.60
2022-08-02T23:45:48.063Z,3.47
2022-08-02T23:48:14.847Z,3.20
2022-08-02T23:50:41.449Z,3.33
2022-08-02T23:53:15.017Z,3.15
2022-08-02T23:55:41.638Z,3.80
2022-08-02T23:58:08.392Z,4.05
